createdAt,value
2023-04-14T00:01:21.146Z,7.67
2023-04-14T00:03:48.714Z,8.24
2023-04-14T00:06:16.327Z,8.49
2023-04-14T00:08:43.795Z,8.32
2023-04-14T00:11:11.326Z,7.97
2023-04-14T00:13:39.061Z,8.04
2023-04-14T00:16:08.532Z,8.55
2023-04-14T00:18:36.018Z,8.09
2023-04-14T00:21:03.528Z,8.46
2023-04-14T00:23:31.058Z,9.13
2023-04-14T00:25:58.637Z,9.54
2023-04-14T00:28:26.093Z,9.81
2023-04-14T00:30:53.628Z,9.95
2023-04-14T00:33:22.468Z,10.03
2023-04-14T00:35:49.955Z,10.04
2023-04-14T00:38:17.420Z,10.04
2023-04-14T00:40:44.909Z,10.04
2023-04-14T00:43:12.364Z,9.93
2023-04-14T00:45:45.683Z,9.89
2023-04-14T00:48:15.064Z,9.78
2023-04-14T00:50:44.606Z,8.55
2023-04-14T00:53:12.743Z,8.50
2023-04-14T00:55:41.485Z,9.11
2023-04-14T00:58:09.746Z,8.40
2023-04-14T01:00:38.743Z,8.25
2023-04-14T01:03:07.183Z,7.97
2023-04-14T01:05:35.116Z,7.79
2023-04-14T01:08:04.670Z,7.28
2023-04-14T01:10:39.079Z,7.11
2023-04-14T01:13:24.288Z,7.18
2023-04-14T01:15:57.389Z,7.39
2023-04-14T01:18:34.113Z,7.23
2023-04-14T01:21:09.093Z,6.81
2023-04-14T01:23:42.121Z,6.77
2023-04-14T01:26:20.119Z,6.72
2023-04-14T01:29:27.556Z,7.61
2023-04-14T01:32:03.166Z,8.10
2023-04-14T01:34:35.822Z,7.39
2023-04-14T01:37:07.689Z,7.25
2023-04-14T01:39:38.815Z,6.71
2023-04-14T01:42:11.390Z,6.80
2023-04-14T01:44:41.255Z,6.83
2023-04-14T01:47:13.843Z,6.81
2023-04-14T01:49:42.723Z,7.32
2023-04-14T01:52:12.330Z,7.44
2023-04-14T01:54:42.129Z,7.72
2023-04-14T01:57:12.114Z,7.00
2023-04-14T01:59:42.422Z,6.50
2023-04-14T02:02:13.888Z,6.38
2023-04-14T02:04:43.334Z,6.81
2023-04-14T02:07:12.523Z,6.24
2023-04-14T02:09:42.172Z,6.36
2023-04-14T02:12:12.200Z,6.34
2023-04-14T02:14:41.591Z,5.90
2023-04-14T02:17:12.508Z,5.94
2023-04-14T02:19:42.010Z,5.92
2023-04-14T02:22:09.528Z,5.93
2023-04-14T02:24:37.076Z,5.91
2023-04-14T02:27:09.844Z,5.59
2023-04-14T02:29:40.613Z,5.60
2023-04-14T02:32:13.338Z,5.71
2023-04-14T02:34:53.298Z,6.09
2023-04-14T02:37:25.082Z,6.14
2023-04-14T02:39:59.791Z,5.98
2023-04-14T02:42:29.641Z,5.74
2023-04-14T02:45:01.746Z,5.90
2023-04-14T02:47:35.910Z,5.76
2023-04-14T02:50:07.678Z,5.71
2023-04-14T02:52:36.213Z,5.63
2023-04-14T02:55:05.160Z,5.62
2023-04-14T02:57:34.149Z,5.48
2023-04-14T03:00:03.587Z,5.43
2023-04-14T03:02:33.421Z,5.41
2023-04-14T03:05:01.782Z,5.35
2023-04-14T03:07:30.299Z,5.38
2023-04-14T03:09:59.065Z,5.45
2023-04-14T03:12:28.433Z,5.41
2023-04-14T03:14:56.691Z,5.46
2023-04-14T03:17:24.828Z,5.43
2023-04-14T03:19:55.990Z,5.52
2023-04-14T03:22:27.012Z,5.53
2023-04-14T03:24:58.135Z,5.41
2023-04-14T03:27:27.930Z,5.45
2023-04-14T03:29:59.222Z,5.49
2023-04-14T03:32:30.294Z,5.40
2023-04-14T03:35:01.343Z,5.34
2023-04-14T03:37:29.963Z,5.34
2023-04-14T03:40:00.520Z,5.45
2023-04-14T03:42:30.169Z,5.44
2023-04-14T03:45:00.432Z,5.36
2023-04-14T03:47:31.503Z,5.52
2023-04-14T03:50:01.731Z,5.47
2023-04-14T03:52:32.168Z,5.44
2023-04-14T03:55:06.527Z,5.72
2023-04-14T03:57:37.071Z,5.80
2023-04-14T04:00:08.495Z,5.86
2023-04-14T04:02:37.411Z,5.76
2023-04-14T04:05:08.449Z,5.89
2023-04-14T04:07:36.872Z,6.06
2023-04-14T04:10:06.149Z,5.87
2023-04-14T04:12:34.186Z,6.21
2023-04-14T04:15:02.278Z,6.40
2023-04-14T04:17:33.493Z,6.86
2023-04-14T04:20:03.146Z,6.95
2023-04-14T04:22:35.996Z,6.62
2023-04-14T04:25:04.101Z,7.30
2023-04-14T04:27:31.842Z,7.63
2023-04-14T04:29:59.608Z,7.11
2023-04-14T04:32:28.090Z,6.47
2023-04-14T04:34:56.648Z,6.21
2023-04-14T04:37:28.631Z,6.17
2023-04-14T04:39:58.970Z,5.92
2023-04-14T04:42:26.521Z,6.24
2023-04-14T04:44:53.996Z,6.05
2023-04-14T04:47:21.540Z,6.34
2023-04-14T04:49:49.054Z,6.22
2023-04-14T04:52:16.520Z,5.98
2023-04-14T04:54:45.330Z,5.81
2023-04-14T04:57:14.120Z,5.95
2023-04-14T04:59:41.694Z,5.77
2023-04-14T05:02:09.191Z,5.80
2023-04-14T05:04:36.722Z,5.69
2023-04-14T05:07:04.438Z,5.64
2023-04-14T05:09:31.934Z,5.67
2023-04-14T05:11:59.449Z,5.85
2023-04-14T05:14:28.259Z,5.77
2023-04-14T05:16:55.804Z,5.73
2023-04-14T05:19:23.500Z,5.94
2023-04-14T05:21:51.052Z,6.10
2023-04-14T05:24:18.519Z,6.01
2023-04-14T05:27:01.830Z,5.95
2023-04-14T05:29:34.962Z,5.97
2023-04-14T05:32:02.422Z,5.93
2023-04-14T05:34:29.888Z,5.92
2023-04-14T05:36:57.347Z,6.10
2023-04-14T05:39:24.810Z,6.54
2023-04-14T05:41:52.280Z,6.57
2023-04-14T05:44:19.743Z,6.57
2023-04-14T05:46:48.640Z,6.56
2023-04-14T05:49:16.110Z,6.49
2023-04-14T05:51:43.652Z,6.40
2023-04-14T05:54:11.105Z,6.18
2023-04-14T05:56:38.617Z,6.10
2023-04-14T05:59:06.097Z,6.08
2023-04-14T06:01:33.556Z,5.93
2023-04-14T06:04:03.823Z,5.93
2023-04-14T06:06:32.530Z,5.97
2023-04-14T06:09:00.238Z,6.02
2023-04-14T06:11:27.863Z,6.04
2023-04-14T06:13:55.319Z,6.24
2023-04-14T06:16:22.865Z,6.12
2023-04-14T06:18:50.390Z,6.07
2023-04-14T06:21:19.169Z,5.80
2023-04-14T06:23:46.632Z,5.80
2023-04-14T06:26:14.137Z,5.82
2023-04-14T06:28:43.671Z,5.97
2023-04-14T06:31:11.449Z,6.09
2023-04-14T06:33:39.085Z,6.29
2023-04-14T06:36:07.182Z,6.29
2023-04-14T06:38:36.042Z,6.11
2023-04-14T06:41:03.480Z,6.07
2023-04-14T06:43:30.927Z,6.04
2023-04-14T06:45:58.430Z,5.83
2023-04-14T06:48:27.250Z,5.81
2023-04-14T06:50:55.704Z,5.91
2023-04-14T06:53:23.575Z,5.77
2023-04-14T06:55:59.261Z,5.91
2023-04-14T06:58:28.145Z,5.87
2023-04-14T07:00:57.041Z,5.91
2023-04-14T07:03:24.706Z,6.00
2023-04-14T07:05:52.994Z,6.29
2023-04-14T07:08:21.181Z,6.48
2023-04-14T07:10:49.097Z,6.27
2023-04-14T07:13:17.905Z,6.07
2023-04-14T07:15:46.825Z,6.14
2023-04-14T07:18:14.386Z,6.02
2023-04-14T07:20:41.865Z,6.04
2023-04-14T07:23:10.078Z,6.00
2023-04-14T07:25:38.191Z,6.02
2023-04-14T07:28:06.191Z,6.25
2023-04-14T07:30:35.023Z,6.23
2023-04-14T07:33:02.997Z,6.28
2023-04-14T07:35:30.918Z,6.41
2023-04-14T07:37:58.385Z,6.23
2023-04-14T07:40:25.883Z,6.44
2023-04-14T07:42:53.362Z,6.47
2023-04-14T07:45:20.847Z,6.30
2023-04-14T07:47:49.668Z,6.37
2023-04-14T07:50:19.636Z,6.48
2023-04-14T07:52:47.567Z,6.52
2023-04-14T07:55:15.065Z,6.51
2023-04-14T07:57:42.531Z,6.74
2023-04-14T08:00:11.262Z,6.74
2023-04-14T08:02:39.028Z,6.73
2023-04-14T08:05:08.484Z,6.93
2023-04-14T08:07:36.044Z,6.80
2023-04-14T08:10:03.678Z,6.82
2023-04-14T08:12:31.435Z,6.83
2023-04-14T08:14:58.892Z,6.88
2023-04-14T08:17:27.177Z,7.01
2023-04-14T08:19:55.365Z,7.02
2023-04-14T08:22:25.504Z,7.07
2023-04-14T08:24:52.967Z,7.11
2023-04-14T08:27:20.424Z,7.17
2023-04-14T08:29:48.075Z,7.10
2023-04-14T08:32:15.645Z,7.35
2023-04-14T08:35:37.306Z,7.59
2023-04-14T08:37:32.737Z,7.62
2023-04-14T08:40:00.443Z,7.71
2023-04-14T08:42:28.017Z,7.56
2023-04-14T08:44:56.419Z,7.78
2023-04-14T08:47:25.476Z,7.78
2023-04-14T08:49:57.923Z,7.79
2023-04-14T08:52:28.816Z,8.01
2023-04-14T08:55:01.081Z,7.79
2023-04-14T08:57:30.306Z,7.76
2023-04-14T08:59:58.272Z,7.64
2023-04-14T09:02:26.657Z,7.71
2023-04-14T09:04:54.945Z,7.67
2023-04-14T09:07:24.118Z,7.44
2023-04-14T09:09:52.339Z,7.42
2023-04-14T09:12:22.701Z,7.60
2023-04-14T09:14:53.215Z,7.63
2023-04-14T09:17:21.218Z,7.98
2023-04-14T09:20:37.288Z,7.78
2023-04-14T09:22:36.934Z,7.85
2023-04-14T09:25:05.252Z,7.56
2023-04-14T09:27:34.467Z,7.73
2023-04-14T09:30:02.424Z,7.47
2023-04-14T09:32:30.528Z,7.69
2023-04-14T09:34:58.593Z,7.52
2023-04-14T09:37:26.888Z,7.62
2023-04-14T09:39:55.600Z,7.72
2023-04-14T09:42:39.992Z,7.39
2023-04-14T09:45:09.506Z,7.40
2023-04-14T09:47:37.515Z,7.35
2023-04-14T09:50:05.573Z,7.62
2023-04-14T09:52:40.305Z,7.67
2023-04-14T09:55:10.432Z,7.82
2023-04-14T09:57:42.333Z,7.84
2023-04-14T10:00:21.469Z,7.60
2023-04-14T10:02:50.229Z,8.07
2023-04-14T10:05:20.686Z,8.24
2023-04-14T10:07:49.105Z,8.45
2023-04-14T10:10:17.292Z,8.28
2023-04-14T10:12:47.090Z,8.13
2023-04-14T10:15:15.334Z,8.25
2023-04-14T10:17:43.348Z,8.36
2023-04-14T10:20:11.546Z,8.44
2023-04-14T10:22:40.984Z,8.30
2023-04-14T10:25:11.035Z,8.51
2023-04-14T10:27:40.153Z,8.46
2023-04-14T10:30:10.089Z,8.49
2023-04-14T10:32:40.509Z,8.33
2023-04-14T10:35:11.132Z,8.54
2023-04-14T10:37:38.704Z,8.42
2023-04-14T10:40:08.064Z,8.76
2023-04-14T10:42:54.949Z,8.84
2023-04-14T10:45:23.887Z,8.67
2023-04-14T10:47:52.017Z,8.71
2023-04-14T10:50:25.108Z,8.82
2023-04-14T10:52:55.852Z,8.90
2023-04-14T10:55:25.129Z,9.36
2023-04-14T10:57:54.490Z,8.94
2023-04-14T11:00:28.410Z,9.02
2023-04-14T11:02:58.792Z,9.20
2023-04-14T11:05:27.043Z,9.56
2023-04-14T11:07:58.807Z,9.66
2023-04-14T11:10:37.467Z,9.71
2023-04-14T11:13:07.325Z,10.02
2023-04-14T11:15:46.897Z,9.99
2023-04-14T11:18:16.317Z,9.80
2023-04-14T11:20:44.893Z,9.40
2023-04-14T11:23:13.979Z,9.23
2023-04-14T11:25:41.562Z,9.23
2023-04-14T11:28:09.066Z,9.27
2023-04-14T11:30:36.546Z,9.53
2023-04-14T11:33:05.562Z,9.29
2023-04-14T11:35:33.116Z,9.60
2023-04-14T11:38:01.673Z,9.65
2023-04-14T11:40:29.370Z,9.60
2023-04-14T11:42:58.879Z,9.60
2023-04-14T11:45:28.626Z,9.07
2023-04-14T11:48:00.828Z,8.79
2023-04-14T11:50:32.878Z,8.64
2023-04-14T11:53:01.039Z,8.55
2023-04-14T11:55:29.301Z,8.70
2023-04-14T11:57:57.968Z,8.41
2023-04-14T12:00:26.340Z,8.32
2023-04-14T12:02:54.063Z,8.15
2023-04-14T12:05:25.298Z,8.34
2023-04-14T12:07:59.714Z,8.81
2023-04-14T12:10:28.015Z,8.85
2023-04-14T12:13:00.835Z,8.82
2023-04-14T12:15:28.670Z,8.84
2023-04-14T12:17:57.123Z,9.16
2023-04-14T12:20:25.085Z,9.31
2023-04-14T12:22:53.965Z,9.08
2023-04-14T12:25:21.519Z,9.50
2023-04-14T12:27:55.783Z,9.38
2023-04-14T12:30:26.345Z,9.10
2023-04-14T12:32:53.896Z,8.82
2023-04-14T12:35:23.851Z,9.01
2023-04-14T12:37:51.704Z,8.92
2023-04-14T12:40:38.491Z,9.35
2023-04-14T12:43:06.186Z,9.65
2023-04-14T12:45:44.654Z,9.39
2023-04-14T12:48:13.035Z,9.42
2023-04-14T12:50:41.453Z,9.28
2023-04-14T12:53:25.969Z,9.09
2023-04-14T12:56:11.605Z,9.43
2023-04-14T12:58:40.338Z,9.72
2023-04-14T13:01:09.052Z,10.06
2023-04-14T13:03:45.792Z,10.26
2023-04-14T13:06:16.218Z,9.99
2023-04-14T13:08:44.690Z,9.90
2023-04-14T13:11:14.001Z,10.22
2023-04-14T13:13:41.600Z,10.69
2023-04-14T13:16:13.519Z,10.82
2023-04-14T13:18:43.113Z,9.91
2023-04-14T13:21:10.812Z,9.42
2023-04-14T13:23:38.282Z,9.14
2023-04-14T13:26:05.956Z,9.28
2023-04-14T13:28:35.070Z,9.74
2023-04-14T13:31:02.614Z,9.82
2023-04-14T13:33:30.132Z,9.74
2023-04-14T13:35:57.674Z,9.67
2023-04-14T13:38:25.429Z,9.53
2023-04-14T13:40:52.944Z,9.39
2023-04-14T13:43:20.507Z,9.75
2023-04-14T13:45:49.386Z,10.43
2023-04-14T13:48:17.150Z,9.61
2023-04-14T13:50:44.652Z,9.50
2023-04-14T13:53:12.446Z,9.81
2023-04-14T13:55:40.004Z,9.66
2023-04-14T13:58:07.472Z,9.65
2023-04-14T14:00:35.041Z,9.81
2023-04-14T14:03:04.278Z,9.92
2023-04-14T14:05:31.860Z,9.91
2023-04-14T14:07:59.332Z,9.93
2023-04-14T14:10:26.950Z,10.03
2023-04-14T14:12:54.490Z,10.26
2023-04-14T14:15:21.965Z,10.09
2023-04-14T14:17:49.442Z,9.86
2023-04-14T14:20:18.407Z,8.94
2023-04-14T14:22:45.874Z,8.67
2023-04-14T14:25:20.328Z,8.64
2023-04-14T14:27:49.127Z,8.43
2023-04-14T14:30:16.714Z,8.29
2023-04-14T14:32:44.230Z,8.33
2023-04-14T14:35:11.723Z,8.47
2023-04-14T14:37:42.064Z,8.73
2023-04-14T14:40:10.592Z,8.71
2023-04-14T14:42:38.147Z,8.86
2023-04-14T14:45:06.847Z,9.05
2023-04-14T14:47:34.591Z,9.34
2023-04-14T14:50:06.893Z,9.31
2023-04-14T14:52:35.475Z,9.10
2023-04-14T14:55:05.154Z,9.05
2023-04-14T14:57:32.681Z,8.71
2023-04-14T15:00:00.179Z,8.70
2023-04-14T15:02:27.765Z,8.80
2023-04-14T15:04:55.558Z,9.07
2023-04-14T15:07:23.033Z,8.87
2023-04-14T15:09:51.278Z,9.01
2023-04-14T15:12:20.250Z,8.82
2023-04-14T15:14:48.349Z,8.86
2023-04-14T15:17:16.647Z,9.03
2023-04-14T15:19:44.669Z,8.77
2023-04-14T15:22:12.133Z,8.87
2023-04-14T15:24:39.639Z,8.52
2023-04-14T15:27:07.089Z,8.31
2023-04-14T15:29:35.908Z,8.34
2023-04-14T15:32:03.386Z,8.15
2023-04-14T15:34:31.145Z,8.26
2023-04-14T15:36:58.696Z,8.18
2023-04-14T15:39:26.827Z,8.26
2023-04-14T15:41:54.260Z,8.20
2023-04-14T15:44:21.778Z,8.15
2023-04-14T15:46:50.884Z,8.04
2023-04-14T15:49:18.498Z,7.96
2023-04-14T15:51:45.940Z,8.17
2023-04-14T15:54:13.407Z,8.21
2023-04-14T15:56:40.843Z,8.16
2023-04-14T15:59:08.587Z,8.22
2023-04-14T16:01:36.211Z,8.48
2023-04-14T16:04:05.626Z,8.42
2023-04-14T16:06:33.975Z,8.58
2023-04-14T16:09:01.974Z,8.53
2023-04-14T16:11:30.585Z,8.55
2023-04-14T16:13:58.101Z,8.62
2023-04-14T16:16:25.871Z,8.60
2023-04-14T16:18:53.880Z,8.55
2023-04-14T16:21:22.698Z,8.81
2023-04-14T16:23:50.741Z,8.53
2023-04-14T16:26:18.191Z,8.58
2023-04-14T16:28:46.083Z,8.41
2023-04-14T16:31:13.680Z,8.36
2023-04-14T16:33:41.268Z,8.40
2023-04-14T16:36:08.783Z,8.56
2023-04-14T16:38:37.586Z,8.60
2023-04-14T16:41:05.071Z,8.49
2023-04-14T16:43:32.731Z,8.50
2023-04-14T16:46:04.166Z,8.54
2023-04-14T16:48:32.449Z,8.45
2023-04-14T16:51:05.073Z,8.40
2023-04-14T16:53:33.579Z,8.23
2023-04-14T16:56:05.499Z,8.28
2023-04-14T16:58:33.011Z,8.16
2023-04-14T17:01:00.544Z,8.30
2023-04-14T17:03:28.280Z,8.18
2023-04-14T17:05:56.223Z,8.33
2023-04-14T17:08:23.791Z,7.92
2023-04-14T17:10:51.619Z,7.96
2023-04-14T17:13:21.283Z,7.96
2023-04-14T17:15:58.436Z,7.98
2023-04-14T17:18:33.569Z,7.79
2023-04-14T17:21:01.237Z,7.68
2023-04-14T17:23:28.747Z,8.00
2023-04-14T17:25:57.986Z,7.79
2023-04-14T17:28:27.231Z,7.80
2023-04-14T17:30:54.781Z,7.82
2023-04-14T17:33:23.582Z,7.71
2023-04-14T17:35:51.091Z,7.70
2023-04-14T17:38:18.926Z,7.72
2023-04-14T17:40:46.531Z,7.76
2023-04-14T17:43:14.054Z,7.66
2023-04-14T17:45:45.994Z,7.66
2023-04-14T17:48:13.617Z,7.75
2023-04-14T17:50:41.140Z,7.93
2023-04-14T17:53:08.628Z,7.95
2023-04-14T17:55:37.668Z,8.02
2023-04-14T17:58:05.676Z,7.90
2023-04-14T18:00:33.842Z,7.81
2023-04-14T18:03:03.997Z,7.88
2023-04-14T18:05:31.647Z,7.72
2023-04-14T18:07:59.121Z,7.73
2023-04-14T18:10:26.964Z,7.72
2023-04-14T18:12:54.434Z,7.51
2023-04-14T18:15:23.582Z,7.50
2023-04-14T18:17:51.529Z,7.49
2023-04-14T18:20:24.898Z,7.53
2023-04-14T18:22:54.077Z,7.53
2023-04-14T18:25:21.832Z,7.59
2023-04-14T18:30:20.105Z,7.59
2023-04-14T18:32:47.686Z,7.64
2023-04-14T18:35:15.691Z,7.64
2023-04-14T18:37:46.300Z,7.49
2023-04-14T18:40:13.861Z,7.53
2023-04-14T18:42:41.402Z,7.53
2023-04-14T18:45:09.785Z,7.50
2023-04-14T18:47:37.780Z,7.42
2023-04-14T18:50:05.955Z,7.38
2023-04-14T18:52:33.455Z,7.40
2023-04-14T18:55:03.204Z,7.28
2023-04-14T18:57:30.743Z,7.27
2023-04-14T18:59:58.389Z,7.33
2023-04-14T19:02:26.047Z,7.38
2023-04-14T19:04:53.752Z,7.40
2023-04-14T19:07:21.290Z,7.35
2023-04-14T19:09:49.066Z,7.49
2023-04-14T19:12:27.606Z,7.48
2023-04-14T19:14:56.039Z,7.53
2023-04-14T19:17:23.876Z,7.64
2023-04-14T19:19:51.364Z,7.51
2023-04-14T19:22:19.120Z,7.56
2023-04-14T19:24:46.640Z,7.76
2023-04-14T19:27:14.079Z,7.67
2023-04-14T19:29:42.911Z,7.96
2023-04-14T19:32:10.366Z,7.92
2023-04-14T19:34:38.126Z,8.10
2023-04-14T19:37:05.628Z,7.92
2023-04-14T19:39:33.100Z,8.00
2023-04-14T19:42:01.548Z,7.97
2023-04-14T19:44:29.004Z,7.81
2023-04-14T19:46:57.835Z,7.75
2023-04-14T19:49:26.313Z,7.54
2023-04-14T19:51:54.354Z,7.54
2023-04-14T19:54:21.801Z,7.62
2023-04-14T19:56:49.325Z,7.45
2023-04-14T19:59:16.820Z,7.53
2023-04-14T20:01:44.976Z,7.59
2023-04-14T20:04:14.567Z,7.54
2023-04-14T20:06:42.809Z,7.58
2023-04-14T20:09:10.614Z,7.47
2023-04-14T20:11:38.082Z,7.52
2023-04-14T20:14:05.812Z,7.59
2023-04-14T20:16:33.455Z,7.80
2023-04-14T20:19:01.586Z,7.49
2023-04-14T20:21:30.914Z,7.46
2023-04-14T20:23:59.320Z,7.47
2023-04-14T20:26:27.463Z,7.33
2023-04-14T20:28:56.044Z,7.34
2023-04-14T20:31:24.284Z,7.59
2023-04-14T20:33:51.898Z,7.64
2023-04-14T20:36:19.374Z,7.50
2023-04-14T20:38:48.236Z,7.55
2023-04-14T20:41:15.711Z,7.46
2023-04-14T20:43:43.511Z,7.59
2023-04-14T20:46:11.161Z,7.54
2023-04-14T20:48:38.685Z,7.64
2023-04-14T20:51:06.399Z,7.66
2023-04-14T20:53:35.022Z,7.53
2023-04-14T20:56:04.311Z,7.43
2023-04-14T20:58:31.793Z,7.35
2023-04-14T21:00:59.316Z,7.12
2023-04-14T21:03:27.813Z,7.19
2023-04-14T21:05:55.793Z,7.29
2023-04-14T21:08:23.291Z,7.28
2023-04-14T21:11:16.353Z,7.13
2023-04-14T21:15:26.292Z,7.22
2023-04-14T21:16:28.524Z,7.02
2023-04-14T21:18:56.012Z,7.07
2023-04-14T21:21:23.528Z,7.07
2023-04-14T21:23:51.205Z,7.20
2023-04-14T21:26:18.761Z,7.15
2023-04-14T21:28:47.605Z,7.00
2023-04-14T21:31:15.685Z,6.91
2023-04-14T21:33:43.194Z,7.11
2023-04-14T21:36:10.847Z,7.06
2023-04-14T21:38:39.086Z,7.04
2023-04-14T21:41:07.758Z,7.04
2023-04-14T21:43:36.046Z,7.20
2023-04-14T21:46:05.394Z,6.97
2023-04-14T21:48:32.927Z,6.98
2023-04-14T21:51:00.623Z,6.71
2023-04-14T21:53:28.188Z,6.81
2023-04-14T21:56:09.358Z,6.95
2023-04-14T21:58:38.058Z,6.88
2023-04-14T22:01:09.460Z,6.90
2023-04-14T22:03:37.861Z,6.95
2023-04-14T22:06:06.175Z,6.92
2023-04-14T22:08:33.699Z,6.90
2023-04-14T22:11:01.381Z,6.81
2023-04-14T22:13:28.885Z,6.71
2023-04-14T22:15:56.561Z,6.76
2023-04-14T22:18:25.827Z,6.68
2023-04-14T22:20:53.317Z,6.77
2023-04-14T22:23:20.902Z,6.66
2023-04-14T22:25:48.418Z,6.64
2023-04-14T22:28:15.889Z,6.51
2023-04-14T22:30:43.957Z,6.57
2023-04-14T22:33:11.456Z,6.56
2023-04-14T22:35:40.611Z,6.62
2023-04-14T22:38:08.182Z,6.48
2023-04-14T22:40:35.945Z,6.47
2023-04-14T22:43:08.533Z,6.46
2023-04-14T22:45:37.005Z,6.41
2023-04-14T22:48:05.395Z,6.48
2023-04-14T22:50:33.705Z,6.38
2023-04-14T22:53:02.812Z,6.50
2023-04-14T22:55:30.654Z,6.52
2023-04-14T22:57:58.145Z,6.55
2023-04-14T23:00:26.646Z,6.45
2023-04-14T23:02:55.620Z,6.40
2023-04-14T23:05:23.325Z,6.61
2023-04-14T23:07:51.086Z,6.74
2023-04-14T23:10:20.232Z,6.54
2023-04-14T23:12:47.789Z,6.62
2023-04-14T23:15:15.287Z,6.52
2023-04-14T23:17:42.830Z,6.53
2023-04-14T23:20:10.919Z,6.62
2023-04-14T23:22:38.526Z,6.69
2023-04-14T23:25:07.181Z,6.66
2023-04-14T23:27:36.316Z,6.61
2023-04-14T23:30:05.339Z,6.64
2023-04-14T23:32:33.725Z,6.63
2023-04-14T23:35:01.614Z,6.36
2023-04-14T23:37:29.083Z,6.40
2023-04-14T23:39:57.344Z,6.41
2023-04-14T23:42:24.812Z,6.35
2023-04-14T23:44:53.626Z,6.46
2023-04-14T23:47:21.558Z,6.39
2023-04-14T23:49:49.044Z,6.39
2023-04-14T23:52:16.509Z,6.29
2023-04-14T23:54:43.969Z,6.40
2023-04-14T23:57:11.434Z,6.28
2023-04-14T23:59:38.920Z,6.28
